Time;durP1;ratioP1;P1;durP2;ratioP2;P2;SDS_P1;SDS_P2;PMS_P1;PMS_P2;Temp;Humidity;BMP_temperature;BMP_pressure;BME280_temperature;BME280_humidity;BME280_pressure;Samples;Min_cycle;Max_cycle;Signal;HPM_P1;HPM_P2
2022/05/31 00:00:34;;;;;;;;;3.25;2.00;21.60;99.90;;;;;;5009923;28;8912;-50
2022/05/31 00:03:05;;;;;;;;;3.00;2.00;21.70;99.90;;;;;;5014215;28;8884;-54
2022/05/31 00:05:36;;;;;;;;;3.00;2.00;21.80;99.90;;;;;;5014184;28;8846;-49
2022/05/31 00:08:08;;;;;;;;;1.25;1.25;21.70;99.90;;;;;;5010609;28;8892;-50
2022/05/31 00:10:38;;;;;;;;;2.75;2.75;21.90;99.90;;;;;;5011903;28;8857;-52
2022/05/31 00:13:08;;;;;;;;;3.00;2.50;21.90;99.90;;;;;;5011306;28;8841;-51
2022/05/31 00:15:38;;;;;;;;;3.00;3.00;21.90;99.90;;;;;;5005487;28;8846;-50
2022/05/31 00:18:08;;;;;;;;;1.75;1.75;21.80;99.90;;;;;;5006079;28;9813;-51
2022/05/31 00:20:38;;;;;;;;;1.50;1.00;21.80;99.90;;;;;;5012750;28;11212;-50
2022/05/31 00:23:09;;;;;;;;;4.25;2.75;21.80;99.90;;;;;;5011507;28;9030;-50
2022/05/31 00:25:39;;;;;;;;;2.00;2.00;21.90;99.90;;;;;;5015524;28;9592;-49
2022/05/31 00:28:09;;;;;;;;;1.75;1.75;22.00;99.90;;;;;;5015823;28;9595;-50
2022/05/31 00:30:40;;;;;;;;;2.50;2.50;22.00;99.90;;;;;;5009831;28;8876;-48
2022/05/31 00:33:11;;;;;;;;;4.75;3.25;21.80;99.90;;;;;;5010094;28;8890;-48
2022/05/31 00:35:46;;;;;;;;;2.50;2.50;21.90;99.90;;;;;;5009477;28;8857;-48
2022/05/31 00:38:18;;;;;;;;;3.00;3.00;21.90;99.90;;;;;;5013032;28;8896;-50
2022/05/31 00:40:48;;;;;;;;;2.25;2.25;21.80;99.90;;;;;;5005694;28;8935;-50
2022/05/31 00:43:22;;;;;;;;;2.25;2.25;21.80;99.90;;;;;;5017052;28;8854;-49
2022/05/31 00:45:58;;;;;;;;;2.00;2.00;21.80;99.90;;;;;;5005397;28;9771;-53
2022/05/31 00:48:34;;;;;;;;;4.00;3.00;21.80;99.90;;;;;;5008541;28;8876;-52
2022/05/31 00:51:13;;;;;;;;;3.25;3.25;21.70;99.90;;;;;;5014065;28;8837;-51
2022/05/31 00:53:51;;;;;;;;;1.00;1.00;21.70;99.90;;;;;;5013577;28;8853;-51
2022/05/31 00:56:24;;;;;;;;;3.50;2.50;21.70;99.90;;;;;;5007103;28;9103;-51
2022/05/31 00:59:10;;;;;;;;;3.25;3.00;21.70;99.90;;;;;;5010960;28;8853;-49
2022/05/31 01:01:43;;;;;;;;;3.50;1.75;21.60;99.90;;;;;;5008900;28;8865;-51
2022/05/31 01:04:13;;;;;;;;;2.75;2.75;21.50;99.90;;;;;;5010730;28;8845;-52
2022/05/31 01:06:44;;;;;;;;;4.50;3.00;21.40;99.90;;;;;;5009524;28;9183;-52
2022/05/31 01:09:15;;;;;;;;;3.25;3.00;21.30;99.90;;;;;;5014722;28;8865;-51
2022/05/31 01:11:46;;;;;;;;;2.75;2.50;21.10;99.90;;;;;;5016906;28;8843;-53
2022/05/31 01:14:35;;;;;;;;;5.50;5.00;20.90;99.90;;;;;;5019683;28;8833;-51
2022/05/31 01:17:34;;;;;;;;;0.50;0.00;20.80;99.90;;;;;;4991689;28;8869;-50
2022/05/31 01:20:23;;;;;;;;;1.50;1.50;20.80;99.90;;;;;;5010938;28;8821;-50
2022/05/31 01:23:17;;;;;;;;;3.67;3.33;20.70;99.90;;;;;;5005199;28;8896;-50
2022/05/31 01:26:05;;;;;;;;;3.00;3.00;20.50;99.90;;;;;;5008352;28;9244;-50
2022/05/31 01:28:53;;;;;;;;;4.00;3.00;20.40;99.90;;;;;;5010378;28;9082;-51
2022/05/31 01:31:49;;;;;;;;;2.67;2.00;20.30;99.90;;;;;;5006111;28;9187;-49
2022/05/31 01:34:31;;;;;;;;;3.00;3.00;20.30;99.90;;;;;;5011187;28;9171;-52
2022/05/31 01:37:01;;;;;;;;;4.33;3.00;20.30;99.90;;;;;;5004971;28;9258;-51
2022/05/31 01:40:09;;;;;;;;;3.33;3.33;20.30;99.90;;;;;;5007981;28;9371;-48
2022/05/31 01:42:44;;;;;;;;;7.67;6.00;20.40;99.90;;;;;;4988721;28;9953;-51
2022/05/31 01:45:22;;;;;;;;;2.00;2.00;20.20;99.90;;;;;;5004049;28;9475;-50
2022/05/31 01:47:52;;;;;;;;;3.33;3.33;20.30;99.90;;;;;;5011326;28;9364;-49
2022/05/31 01:50:23;;;;;;;;;3.67;3.67;20.20;99.90;;;;;;5029814;28;9964;-45
2022/05/31 01:52:54;;;;;;;;;6.33;4.00;20.20;99.90;;;;;;5007404;28;9485;-48
2022/05/31 01:55:26;;;;;;;;;2.67;2.67;20.10;99.90;;;;;;5011708;28;9399;-48
2022/05/31 01:58:00;;;;;;;;;7.33;7.00;20.20;99.90;;;;;;5013571;28;10076;-47
2022/05/31 02:00:30;;;;;;;;;5.00;3.00;20.20;99.90;;;;;;5015424;28;9534;-50
2022/05/31 02:03:05;;;;;;;;;2.67;2.67;20.20;99.90;;;;;;5012380;28;9406;-49
2022/05/31 02:05:36;;;;;;;;;3.33;2.67;20.00;99.90;;;;;;5024318;28;9502;-51
2022/05/31 02:08:07;;;;;;;;;1.00;1.00;19.90;99.90;;;;;;5015434;28;9407;-47
2022/05/31 02:10:40;;;;;;;;;2.67;2.00;19.80;99.90;;;;;;5021585;28;9400;-45
2022/05/31 02:13:13;;;;;;;;;3.00;3.00;19.60;99.90;;;;;;5029690;28;9472;-50
2022/05/31 02:16:00;;;;;;;;;2.67;2.00;19.70;99.90;;;;;;5013579;28;9642;-51
2022/05/31 02:21:53;;;;;;;;;0.00;0.00;19.60;99.90;;;;;;5013675;28;9544;-53
2022/05/31 02:24:25;;;;;;;;;3.67;3.00;19.70;99.90;;;;;;5028285;28;9463;-47
2022/05/31 02:26:56;;;;;;;;;3.00;3.00;19.60;99.90;;;;;;5012928;28;9568;-49
2022/05/31 02:29:30;;;;;;;;;2.33;2.33;19.60;99.90;;;;;;5015731;28;9615;-52
2022/05/31 02:32:02;;;;;;;;;2.00;2.00;19.50;99.90;;;;;;5013708;28;9534;-52
2022/05/31 02:34:36;;;;;;;;;3.67;3.67;19.40;99.90;;;;;;5012629;28;9626;-50
2022/05/31 02:37:07;;;;;;;;;1.67;1.33;19.40;99.90;;;;;;5014266;28;9983;-50
2022/05/31 02:39:38;;;;;;;;;5.00;4.00;19.30;99.90;;;;;;5008462;28;9798;-53
2022/05/31 02:42:08;;;;;;;;;3.33;3.33;19.40;99.90;;;;;;5014878;28;9815;-52
2022/05/31 02:44:39;;;;;;;;;4.00;2.75;19.40;99.90;;;;;;5013079;28;9551;-51
2022/05/31 02:47:11;;;;;;;;;2.00;2.00;19.30;99.90;;;;;;5015332;28;9797;-51
2022/05/31 02:49:44;;;;;;;;;3.00;1.50;19.20;99.90;;;;;;5011931;28;9702;-49
2022/05/31 02:52:15;;;;;;;;;5.00;2.00;19.30;99.90;;;;;;5010473;28;9606;-52
2022/05/31 02:54:46;;;;;;;;;3.00;3.00;19.20;99.90;;;;;;5010969;28;10667;-49
2022/05/31 02:57:23;;;;;;;;;3.00;3.00;19.20;99.90;;;;;;5019942;28;9533;-50
2022/05/31 02:59:52;;;;;;;;;3.67;3.67;19.10;99.90;;;;;;5013066;28;9443;-51
2022/05/31 03:02:41;;;;;;;;;2.25;0.75;19.10;99.90;;;;;;5024756;28;9524;-54
2022/05/31 03:05:33;;;;;;;;;2.25;2.25;19.00;99.90;;;;;;5012588;28;9614;-52
2022/05/31 03:08:23;;;;;;;;;3.00;3.00;18.90;99.90;;;;;;5012895;28;9949;-47
2022/05/31 03:11:29;;;;;;;;;3.25;2.75;19.00;99.90;;;;;;5014219;28;9758;-50
2022/05/31 03:14:29;;;;;;;;;4.00;2.00;18.80;99.90;;;;;;5015902;28;9902;-48
2022/05/31 03:17:15;;;;;;;;;1.00;1.00;18.80;99.90;;;;;;5011002;28;10097;-51
2022/05/31 03:20:04;;;;;;;;;4.00;2.00;18.80;99.90;;;;;;5005907;28;9963;-48
2022/05/31 03:22:42;;;;;;;;;2.75;2.75;18.70;99.90;;;;;;5010981;28;10346;-51
2022/05/31 03:25:19;;;;;;;;;2.75;2.00;18.70;99.90;;;;;;5007003;28;10470;-50
2022/05/31 03:27:51;;;;;;;;;4.75;4.75;18.60;99.90;;;;;;5011118;28;10451;-51
2022/05/31 03:30:21;;;;;;;;;5.00;5.00;18.50;99.90;;;;;;5010809;28;10315;-50
2022/05/31 03:32:53;;;;;;;;;4.25;3.25;18.50;99.90;;;;;;5011001;28;10877;-49
2022/05/31 03:35:23;;;;;;;;;3.00;3.00;18.40;99.90;;;;;;5008836;28;10122;-51
2022/05/31 03:37:56;;;;;;;;;4.50;3.75;18.40;99.90;;;;;;5002793;28;11335;-53
2022/05/31 03:43:32;;;;;;;;;5.50;5.50;18.30;99.90;;;;;;5011501;28;10249;-50
2022/05/31 03:46:35;;;;;;;;;3.00;3.00;18.30;99.90;;;;;;5028130;28;10218;-51
2022/05/31 03:49:25;;;;;;;;;5.00;4.00;18.20;99.90;;;;;;5007722;28;10214;-50
2022/05/31 03:52:04;;;;;;;;;6.00;3.75;18.20;99.90;;;;;;5006613;28;10430;-53
2022/05/31 03:54:40;;;;;;;;;6.50;3.25;18.20;99.90;;;;;;5028166;28;10267;-52
2022/05/31 03:57:18;;;;;;;;;3.25;3.25;18.10;99.90;;;;;;5023392;28;10379;-52
2022/05/31 03:59:53;;;;;;;;;2.25;2.25;18.10;99.90;;;;;;5011192;28;10145;-50
2022/05/31 04:02:35;;;;;;;;;5.25;3.25;18.10;99.90;;;;;;5018105;28;10232;-48
2022/05/31 04:05:07;;;;;;;;;1.50;1.50;18.10;99.90;;;;;;5009362;28;10312;-49
2022/05/31 04:07:37;;;;;;;;;2.25;2.25;18.00;99.90;;;;;;5013370;28;11149;-51
2022/05/31 04:10:11;;;;;;;;;3.75;2.50;17.90;99.90;;;;;;5013001;28;10574;-52
2022/05/31 04:12:42;;;;;;;;;3.50;3.50;17.90;99.90;;;;;;5013136;28;10383;-48
2022/05/31 04:15:35;;;;;;;;;4.75;3.25;17.80;99.90;;;;;;5009080;28;10760;-50
2022/05/31 04:18:06;;;;;;;;;4.00;4.00;17.70;99.90;;;;;;5010996;28;10468;-49
2022/05/31 04:20:38;;;;;;;;;3.25;3.25;17.70;99.90;;;;;;5010248;28;11053;-52
2022/05/31 04:26:16;;;;;;;;;10.25;10.25;17.60;99.90;;;;;;5019051;28;11018;-50
2022/05/31 04:29:11;;;;;;;;;16.50;16.50;17.60;99.90;;;;;;5014707;28;11471;-48
2022/05/31 04:32:03;;;;;;;;;26.00;26.00;17.50;99.90;;;;;;5008971;28;11583;-51
2022/05/31 04:34:43;;;;;;;;;33.00;32.00;17.40;99.90;;;;;;4999217;28;11621;-46
2022/05/31 04:37:14;;;;;;;;;27.50;27.50;17.40;99.90;;;;;;5007436;28;11598;-52
2022/05/31 04:40:03;;;;;;;;;37.00;34.00;17.50;99.90;;;;;;5016961;28;11577;-51
2022/05/31 04:42:45;;;;;;;;;42.00;35.25;17.40;99.90;;;;;;5016206;28;11583;-47
2022/05/31 04:45:46;;;;;;;;;40.00;35.75;17.40;99.90;;;;;;5009336;28;11638;-49
2022/05/31 04:48:39;;;;;;;;;38.25;34.75;17.40;99.90;;;;;;5009159;28;12375;-52
2022/05/31 04:51:11;;;;;;;;;29.75;27.50;17.30;99.90;;;;;;5011197;28;11642;-47
2022/05/31 04:53:51;;;;;;;;;24.25;23.25;17.30;99.90;;;;;;5013167;28;11775;-48
2022/05/31 04:56:45;;;;;;;;;16.25;16.25;17.30;99.90;;;;;;5010234;28;11614;-52
2022/05/31 04:59:18;;;;;;;;;17.75;17.75;17.20;99.90;;;;;;5014209;28;11600;-51
2022/05/31 05:01:47;;;;;;;;;18.00;18.00;17.20;99.90;;;;;;5012602;28;11657;-52
2022/05/31 05:04:34;;;;;;;;;17.25;17.25;17.20;99.90;;;;;;5010091;28;11761;-47
2022/05/31 05:07:21;;;;;;;;;17.50;17.50;17.20;99.90;;;;;;5027184;28;11622;-50
2022/05/31 05:09:51;;;;;;;;;18.25;17.50;17.20;99.90;;;;;;5014598;28;11649;-49
2022/05/31 05:12:27;;;;;;;;;15.50;15.50;17.10;99.90;;;;;;5016064;28;11608;-51
2022/05/31 05:15:07;;;;;;;;;14.75;14.75;17.20;99.90;;;;;;5003891;28;11635;-47
2022/05/31 05:17:42;;;;;;;;;17.00;15.50;17.20;99.90;;;;;;5010327;28;12441;-49
2022/05/31 05:20:11;;;;;;;;;13.75;12.00;17.10;99.90;;;;;;5024737;28;11611;-53
2022/05/31 05:22:42;;;;;;;;;15.75;14.00;17.10;99.90;;;;;;4999937;28;11508;-52
2022/05/31 05:25:12;;;;;;;;;12.25;12.25;17.10;99.90;;;;;;5008520;28;11608;-49
2022/05/31 05:27:56;;;;;;;;;9.00;9.00;17.00;99.90;;;;;;5016701;28;11591;-50
2022/05/31 05:30:39;;;;;;;;;11.00;10.50;16.90;99.90;;;;;;5010349;28;11541;-51
2022/05/31 05:33:30;;;;;;;;;13.00;13.00;16.90;99.90;;;;;;5012565;28;11534;-50
2022/05/31 05:36:18;;;;;;;;;12.25;11.00;16.90;99.90;;;;;;5016563;28;11560;-48
2022/05/31 05:38:51;;;;;;;;;12.75;12.75;16.90;99.90;;;;;;5018932;28;11498;-52
2022/05/31 05:41:40;;;;;;;;;11.25;11.25;16.90;99.90;;;;;;5021509;28;11470;-51
2022/05/31 05:44:28;;;;;;;;;12.25;12.25;16.80;99.90;;;;;;5011378;28;11604;-50
2022/05/31 05:47:08;;;;;;;;;10.50;10.50;16.90;99.90;;;;;;5031723;28;11689;-51
2022/05/31 05:49:38;;;;;;;;;10.00;9.50;16.80;99.90;;;;;;5012783;28;12275;-49
2022/05/31 05:52:27;;;;;;;;;7.75;7.00;16.80;99.90;;;;;;5015309;28;11557;-49
2022/05/31 05:55:15;;;;;;;;;6.00;6.00;16.80;99.90;;;;;;5021922;28;11498;-49
2022/05/31 05:58:21;;;;;;;;;4.75;4.25;16.80;99.90;;;;;;4956603;28;12049;-50
2022/05/31 06:01:24;;;;;;;;;1.50;1.50;16.70;99.90;;;;;;5008958;28;11105;-50
2022/05/31 06:04:03;;;;;;;;;3.00;3.00;16.70;99.90;;;;;;5013413;28;11076;-49
2022/05/31 06:06:35;;;;;;;;;5.25;2.50;16.70;99.90;;;;;;5010781;28;11045;-52
2022/05/31 06:09:11;;;;;;;;;5.50;3.75;16.70;99.90;;;;;;5018662;28;10776;-51
2022/05/31 06:12:01;;;;;;;;;2.75;2.75;16.60;99.90;;;;;;5014542;28;10711;-49
2022/05/31 06:14:39;;;;;;;;;4.00;4.00;16.60;99.90;;;;;;5010719;28;10630;-52
2022/05/31 06:17:17;;;;;;;;;3.75;2.00;16.60;99.90;;;;;;5010030;28;10707;-49
2022/05/31 06:19:50;;;;;;;;;3.50;3.50;16.50;99.90;;;;;;5013485;28;10221;-52
2022/05/31 06:22:20;;;;;;;;;6.50;4.00;16.50;99.90;;;;;;5020904;28;10417;-51
2022/05/31 06:25:00;;;;;;;;;3.00;3.00;16.50;99.90;;;;;;5011728;28;10578;-50
2022/05/31 06:27:50;;;;;;;;;3.50;2.25;16.50;99.90;;;;;;5022704;28;10590;-52
2022/05/31 06:30:20;;;;;;;;;5.50;3.50;16.50;99.90;;;;;;5012437;28;10527;-48
2022/05/31 06:32:50;;;;;;;;;4.50;4.50;16.40;99.90;;;;;;5012510;28;10813;-53
2022/05/31 06:35:21;;;;;;;;;5.00;3.25;16.40;99.90;;;;;;5011594;28;10972;-51
2022/05/31 06:38:01;;;;;;;;;3.00;3.00;16.40;99.90;;;;;;5010998;28;10756;-52
2022/05/31 06:40:32;;;;;;;;;4.00;4.00;16.40;99.90;;;;;;5014104;28;10926;-50
2022/05/31 06:43:09;;;;;;;;;2.25;2.25;16.30;99.90;;;;;;5021013;28;11055;-49
2022/05/31 06:46:06;;;;;;;;;5.50;4.50;16.30;99.90;;;;;;5014234;28;11591;-49
2022/05/31 06:48:54;;;;;;;;;3.25;3.25;16.30;99.90;;;;;;5022032;28;10806;-52
2022/05/31 06:57:51;;;;;;;;;3.00;3.00;16.20;99.90;;;;;;5023073;28;10976;-51
2022/05/31 07:00:30;;;;;;;;;3.25;3.25;16.20;99.90;;;;;;5011247;28;10819;-52
2022/05/31 07:02:59;;;;;;;;;3.00;3.00;16.20;99.90;;;;;;5014387;28;11400;-52
2022/05/31 07:05:39;;;;;;;;;6.50;6.50;16.20;99.90;;;;;;4996718;28;11018;-49
2022/05/31 07:08:17;;;;;;;;;2.50;2.50;16.20;99.90;;;;;;5012689;28;11073;-51
2022/05/31 07:11:01;;;;;;;;;5.00;5.00;16.20;99.90;;;;;;5020072;28;10982;-52
2022/05/31 07:13:49;;;;;;;;;7.75;4.75;16.20;99.90;;;;;;5020385;28;10834;-52
2022/05/31 07:16:38;;;;;;;;;4.00;4.00;16.10;99.90;;;;;;5010948;28;10774;-48
2022/05/31 07:19:30;;;;;;;;;3.25;3.25;16.10;99.90;;;;;;5014524;28;10800;-51
2022/05/31 07:22:21;;;;;;;;;3.00;3.00;16.10;99.90;;;;;;5017695;28;10922;-52
2022/05/31 07:25:07;;;;;;;;;4.00;4.00;16.10;99.90;;;;;;5009343;28;10866;-50
2022/05/31 07:27:50;;;;;;;;;3.50;2.75;16.10;99.90;;;;;;4996873;28;11046;-51
2022/05/31 07:30:21;;;;;;;;;4.75;4.50;16.00;99.90;;;;;;5010867;28;11824;-51
2022/05/31 07:32:52;;;;;;;;;4.75;4.25;16.00;99.90;;;;;;5006141;28;11687;-52
2022/05/31 07:35:43;;;;;;;;;2.75;2.75;16.00;99.90;;;;;;5014074;28;11225;-52
2022/05/31 07:38:13;;;;;;;;;6.75;3.75;15.90;99.90;;;;;;5024693;28;11632;-52
2022/05/31 07:40:47;;;;;;;;;3.00;3.00;16.00;99.90;;;;;;5009090;28;11075;-51
2022/05/31 07:43:17;;;;;;;;;3.00;3.00;15.90;99.90;;;;;;5026283;28;10846;-48
2022/05/31 07:45:49;;;;;;;;;3.00;3.00;15.90;99.90;;;;;;5005242;28;10977;-47
2022/05/31 07:48:19;;;;;;;;;3.50;3.50;15.90;99.90;;;;;;5015289;28;10839;-47
2022/05/31 07:50:51;;;;;;;;;3.00;3.00;15.80;99.90;;;;;;4995295;28;11242;-51
2022/05/31 07:53:54;;;;;;;;;3.25;3.00;15.80;99.90;;;;;;4987812;28;10884;-49
2022/05/31 07:56:57;;;;;;;;;3.25;3.00;15.80;99.90;;;;;;5008413;28;11202;-50
2022/05/31 08:00:05;;;;;;;;;3.00;3.00;15.70;99.90;;;;;;4992296;28;11789;-51
2022/05/31 08:02:46;;;;;;;;;3.75;2.25;15.70;99.90;;;;;;5013004;28;11076;-47
2022/05/31 08:05:16;;;;;;;;;3.75;3.75;15.70;99.90;;;;;;5012545;28;10936;-47
2022/05/31 08:07:46;;;;;;;;;6.50;5.00;15.70;99.90;;;;;;5012690;28;11067;-49
2022/05/31 08:10:17;;;;;;;;;3.00;3.00;15.70;99.90;;;;;;5010692;28;10986;-52
2022/05/31 08:12:48;;;;;;;;;6.50;6.50;15.70;99.90;;;;;;5014992;28;10722;-48
2022/05/31 08:15:19;;;;;;;;;6.00;6.00;15.60;99.90;;;;;;5011009;28;11071;-50
2022/05/31 08:17:48;;;;;;;;;5.00;3.75;15.60;99.90;;;;;;5011078;28;11993;-49
2022/05/31 08:20:18;;;;;;;;;3.00;3.00;15.60;99.90;;;;;;5012239;28;10974;-50
2022/05/31 08:22:48;;;;;;;;;5.00;5.00;15.60;99.90;;;;;;5011109;28;11122;-47
2022/05/31 08:25:18;;;;;;;;;4.50;4.25;15.60;99.90;;;;;;5012259;28;11257;-50
2022/05/31 08:27:48;;;;;;;;;4.50;3.50;15.60;99.90;;;;;;5012692;28;11156;-48
2022/05/31 08:30:18;;;;;;;;;2.00;2.00;15.60;99.90;;;;;;5008758;28;10956;-50
2022/05/31 08:32:48;;;;;;;;;6.25;5.00;15.50;99.90;;;;;;5011370;28;11058;-50
2022/05/31 08:35:19;;;;;;;;;4.50;3.50;15.40;99.90;;;;;;5013504;28;10998;-47
2022/05/31 08:38:10;;;;;;;;;4.25;2.75;15.40;99.90;;;;;;5011946;28;11139;-47
2022/05/31 08:41:01;;;;;;;;;5.75;5.75;15.40;99.90;;;;;;5007690;28;11020;-47
2022/05/31 08:43:49;;;;;;;;;3.50;3.50;15.40;99.90;;;;;;5012522;28;11151;-52
2022/05/31 08:46:36;;;;;;;;;4.00;4.00;15.50;99.90;;;;;;5012675;28;11141;-47
2022/05/31 08:51:52;;;;;;;;;5.00;5.00;15.40;99.90;;;;;;5006562;28;11268;-51
2022/05/31 08:52:30;;;;;;;;;5.75;5.25;15.30;99.90;;;;;;5014542;28;11193;-51
2022/05/31 08:58:04;;;;;;;;;4.75;4.25;15.30;99.90;;;;;;5007490;28;10981;-51
2022/05/31 09:00:44;;;;;;;;;3.25;3.25;15.30;99.90;;;;;;5009872;28;11655;-49
2022/05/31 09:03:45;;;;;;;;;6.50;6.50;15.30;99.90;;;;;;5007411;28;11228;-53
2022/05/31 09:06:43;;;;;;;;;4.00;4.00;15.30;99.90;;;;;;5013284;28;11175;-48
2022/05/31 09:09:24;;;;;;;;;3.50;3.50;15.30;99.90;;;;;;5013122;28;11151;-47
2022/05/31 09:12:17;;;;;;;;;5.50;5.50;15.20;99.90;;;;;;5017022;28;11232;-49
2022/05/31 09:15:13;;;;;;;;;5.00;5.00;15.20;99.90;;;;;;5015598;28;11258;-50
2022/05/31 09:17:45;;;;;;;;;7.00;3.50;15.20;99.90;;;;;;5019153;28;11096;-49
2022/05/31 09:20:30;;;;;;;;;7.00;5.50;15.20;99.90;;;;;;5015350;28;11502;-48
2022/05/31 09:22:59;;;;;;;;;3.00;0.75;15.10;99.90;;;;;;5017718;28;12731;-51
2022/05/31 09:25:39;;;;;;;;;3.00;3.00;15.10;99.90;;;;;;5011155;28;11216;-51
2022/05/31 09:28:30;;;;;;;;;5.75;5.00;15.10;99.90;;;;;;5018348;28;11589;-49
2022/05/31 09:31:09;;;;;;;;;5.50;5.50;15.10;99.90;;;;;;5016533;28;11470;-48
2022/05/31 09:33:52;;;;;;;;;3.25;3.25;15.10;99.90;;;;;;5015641;28;11050;-52
2022/05/31 09:37:10;;;;;;;;;4.00;4.00;15.10;99.90;;;;;;5010506;28;11490;-51
2022/05/31 09:40:08;;;;;;;;;5.00;3.75;15.00;99.90;;;;;;5014540;28;11477;-52
2022/05/31 09:43:01;;;;;;;;;5.00;5.00;14.90;99.90;;;;;;5014980;28;11170;-51
2022/05/31 09:45:37;;;;;;;;;4.75;3.50;15.00;99.90;;;;;;5012900;28;11172;-52
2022/05/31 09:48:07;;;;;;;;;3.50;3.50;15.00;99.90;;;;;;5016985;28;11478;-51
2022/05/31 09:50:38;;;;;;;;;4.00;3.25;14.90;99.90;;;;;;5016707;28;11852;-51
2022/05/31 09:57:05;;;;;;;;;5.00;5.00;14.90;99.90;;;;;;5016076;28;11340;-52
2022/05/31 09:59:23;;;;;;;;;4.75;4.75;14.90;99.90;;;;;;5018277;28;11584;-51
2022/05/31 10:02:25;;;;;;;;;3.50;3.50;14.90;99.90;;;;;;5016994;28;11113;-48
2022/05/31 10:05:19;;;;;;;;;3.50;3.50;14.90;99.90;;;;;;5014145;28;11566;-51
2022/05/31 10:07:49;;;;;;;;;4.00;4.00;14.90;99.90;;;;;;5013650;28;11479;-47
2022/05/31 10:10:33;;;;;;;;;3.00;3.00;14.90;99.90;;;;;;5014649;28;10912;-51
2022/05/31 10:13:09;;;;;;;;;4.00;4.00;14.80;99.90;;;;;;5016663;28;11094;-50
2022/05/31 10:15:51;;;;;;;;;4.75;3.00;14.80;99.90;;;;;;5009768;28;11361;-51
2022/05/31 10:18:28;;;;;;;;;3.00;3.00;14.80;99.90;;;;;;5014732;28;11321;-52
2022/05/31 10:21:02;;;;;;;;;4.25;4.25;14.80;99.90;;;;;;5014868;28;11191;-50
2022/05/31 10:23:36;;;;;;;;;3.50;2.75;14.80;99.90;;;;;;5016642;28;11229;-49
2022/05/31 10:26:40;;;;;;;;;6.00;3.75;14.80;99.90;;;;;;4992888;28;11159;-47
2022/05/31 10:29:27;;;;;;;;;6.75;4.50;14.80;99.90;;;;;;5021793;28;12254;-48
2022/05/31 10:32:34;;;;;;;;;4.75;4.00;14.80;99.90;;;;;;5012115;28;11466;-52
2022/05/31 10:35:20;;;;;;;;;4.00;4.00;14.70;99.90;;;;;;5015168;28;11614;-51
2022/05/31 10:38:04;;;;;;;;;5.75;5.75;14.70;99.90;;;;;;5015826;28;12181;-52
2022/05/31 10:40:40;;;;;;;;;4.75;4.75;14.60;99.90;;;;;;5015730;28;11473;-51
2022/05/31 10:43:40;;;;;;;;;7.50;4.00;14.60;99.90;;;;;;5017510;28;11135;-49
2022/05/31 10:46:35;;;;;;;;;2.75;2.75;14.50;99.90;;;;;;5013570;28;11153;-52
2022/05/31 10:49:18;;;;;;;;;6.25;4.25;14.50;99.90;;;;;;5017988;28;11518;-48
2022/05/31 10:52:12;;;;;;;;;5.25;5.25;14.50;99.90;;;;;;5008599;28;11521;-50
2022/05/31 10:55:18;;;;;;;;;4.00;4.00;14.50;99.90;;;;;;5011362;28;11474;-52
2022/05/31 10:58:08;;;;;;;;;3.00;3.00;14.50;99.90;;;;;;5014582;28;12109;-49
2022/05/31 11:00:47;;;;;;;;;5.25;5.25;14.50;99.90;;;;;;5014125;28;11199;-52
2022/05/31 11:03:28;;;;;;;;;6.25;6.00;14.40;99.90;;;;;;5009854;28;11455;-50
2022/05/31 11:06:21;;;;;;;;;4.25;4.25;14.40;99.90;;;;;;5014938;28;11477;-50
2022/05/31 11:12:25;;;;;;;;;8.00;8.00;14.40;99.90;;;;;;5018136;28;11241;-51
2022/05/31 11:15:23;;;;;;;;;6.25;4.50;14.40;99.90;;;;;;5015269;28;11581;-50
2022/05/31 11:18:11;;;;;;;;;5.00;5.00;14.40;99.90;;;;;;5013945;28;11509;-51
2022/05/31 11:20:53;;;;;;;;;5.00;4.75;14.40;99.90;;;;;;5016350;28;11494;-49
2022/05/31 11:23:49;;;;;;;;;4.25;4.25;14.40;99.90;;;;;;5011932;28;11460;-51
2022/05/31 11:26:52;;;;;;;;;5.25;5.00;14.40;99.90;;;;;;5013477;28;11513;-52
2022/05/31 11:29:56;;;;;;;;;6.25;6.00;14.40;99.90;;;;;;5016386;28;11506;-51
2022/05/31 11:32:34;;;;;;;;;5.75;5.75;14.30;99.90;;;;;;5015734;28;11495;-50
2022/05/31 11:35:44;;;;;;;;;8.00;4.00;14.20;99.90;;;;;;5012866;28;11494;-51
2022/05/31 11:38:27;;;;;;;;;9.00;7.25;14.20;99.90;;;;;;5016849;28;11460;-48
2022/05/31 11:41:20;;;;;;;;;9.25;8.00;14.10;99.90;;;;;;5010497;28;11607;-52
2022/05/31 11:43:52;;;;;;;;;12.75;11.00;14.10;99.90;;;;;;5004396;28;11502;-51
2022/05/31 11:46:45;;;;;;;;;8.50;6.75;14.10;99.90;;;;;;5012379;28;11537;-50
2022/05/31 11:49:54;;;;;;;;;6.00;6.00;14.10;99.90;;;;;;5014002;28;11509;-49
2022/05/31 11:52:57;;;;;;;;;8.25;8.25;14.10;99.90;;;;;;5015356;28;12194;-51
2022/05/31 11:55:41;;;;;;;;;6.75;6.00;14.10;99.90;;;;;;4992400;28;12225;-53
2022/05/31 11:58:24;;;;;;;;;6.25;6.25;14.10;99.90;;;;;;5016873;28;11492;-48
2022/05/31 12:01:12;;;;;;;;;8.00;7.00;14.00;99.90;;;;;;5013298;28;11479;-51
2022/05/31 12:03:55;;;;;;;;;9.25;8.75;14.00;99.90;;;;;;5011646;28;11568;-51
2022/05/31 12:06:34;;;;;;;;;9.00;9.00;14.00;99.90;;;;;;5010574;28;11527;-51
2022/05/31 12:09:15;;;;;;;;;10.00;9.75;14.00;99.90;;;;;;5015467;28;11665;-51
2022/05/31 12:12:05;;;;;;;;;7.75;7.75;14.00;99.90;;;;;;5014165;28;11504;-50
2022/05/31 12:14:46;;;;;;;;;9.75;8.00;14.00;99.90;;;;;;5007229;28;11500;-51
2022/05/31 12:17:18;;;;;;;;;10.50;10.50;14.00;99.90;;;;;;5011937;28;11450;-51
2022/05/31 12:20:11;;;;;;;;;7.00;7.00;14.00;99.90;;;;;;5015301;28;11487;-48
2022/05/31 12:22:56;;;;;;;;;9.00;7.50;13.90;99.90;;;;;;5012537;28;11658;-50
2022/05/31 12:25:32;;;;;;;;;7.00;5.75;13.80;99.90;;;;;;5013373;28;11480;-50
2022/05/31 12:28:05;;;;;;;;;9.00;9.00;13.90;99.90;;;;;;5014864;28;11455;-51
2022/05/31 12:31:02;;;;;;;;;8.50;7.00;14.00;99.90;;;;;;5011739;28;11510;-51
2022/05/31 12:36:22;;;;;;;;;5.50;5.50;13.90;99.90;;;;;;5015053;28;11515;-47
2022/05/31 12:39:08;;;;;;;;;7.00;6.50;13.90;99.90;;;;;;5010691;28;12232;-49
2022/05/31 12:41:42;;;;;;;;;5.00;5.00;13.80;99.90;;;;;;5011521;28;11521;-49
2022/05/31 12:44:32;;;;;;;;;8.75;7.25;13.80;99.90;;;;;;5014080;28;12207;-49
2022/05/31 12:47:16;;;;;;;;;3.00;3.00;13.80;99.90;;;;;;5011596;28;11611;-50
2022/05/31 12:49:57;;;;;;;;;6.00;6.00;13.80;99.90;;;;;;5014463;28;11590;-49
2022/05/31 12:55:36;;;;;;;;;6.50;5.00;13.80;99.90;;;;;;5008215;28;11528;-49
2022/05/31 12:58:29;;;;;;;;;6.25;4.50;13.80;99.90;;;;;;5009037;28;11515;-47
2022/05/31 13:01:06;;;;;;;;;4.00;3.50;13.70;99.90;;;;;;5009307;28;11615;-47
2022/05/31 13:03:37;;;;;;;;;4.75;4.75;13.70;99.90;;;;;;5005285;28;11549;-49
2022/05/31 13:06:12;;;;;;;;;5.50;5.50;13.70;99.90;;;;;;5016381;28;11534;-49
2022/05/31 13:08:52;;;;;;;;;3.50;3.00;13.70;99.90;;;;;;5013099;28;12244;-50
2022/05/31 13:20:09;;;;;;;;;6.00;6.00;13.60;99.90;;;;;;5010046;28;11532;-50
2022/05/31 13:22:45;;;;;;;;;2.25;2.25;13.60;99.90;;;;;;5009332;28;11610;-50
2022/05/31 13:25:23;;;;;;;;;3.25;3.25;13.60;99.90;;;;;;5010898;28;12275;-51
2022/05/31 13:27:57;;;;;;;;;1.75;1.50;13.50;99.90;;;;;;5012482;28;11477;-48
2022/05/31 13:30:31;;;;;;;;;3.75;3.75;13.50;99.90;;;;;;5010391;28;11453;-50
2022/05/31 13:33:14;;;;;;;;;6.50;5.25;13.50;99.90;;;;;;5012857;28;12254;-51
2022/05/31 13:35:45;;;;;;;;;3.00;3.00;13.50;99.90;;;;;;5014417;28;11547;-48
2022/05/31 13:38:29;;;;;;;;;7.50;4.25;13.50;99.90;;;;;;5013163;28;11511;-57
2022/05/31 13:41:04;;;;;;;;;3.50;3.50;13.50;99.90;;;;;;4976710;28;11538;-47
2022/05/31 13:43:43;;;;;;;;;4.50;4.50;13.50;99.90;;;;;;5014719;28;11478;-50
2022/05/31 13:46:29;;;;;;;;;3.00;3.00;13.50;99.90;;;;;;5009780;28;11504;-46
2022/05/31 13:49:03;;;;;;;;;5.50;5.50;13.50;99.90;;;;;;5016338;28;11472;-51
2022/05/31 13:51:34;;;;;;;;;4.50;3.25;13.50;99.90;;;;;;5016326;28;11635;-52
2022/05/31 13:54:08;;;;;;;;;6.00;5.00;13.50;99.90;;;;;;5011647;28;11493;-50
2022/05/31 13:56:38;;;;;;;;;4.00;4.00;13.60;99.90;;;;;;5016216;28;11528;-48
2022/05/31 13:59:10;;;;;;;;;7.25;4.25;13.60;99.90;;;;;;5018579;28;11647;-49
2022/05/31 14:01:45;;;;;;;;;5.00;5.00;13.60;99.90;;;;;;5011584;28;11464;-50
2022/05/31 14:04:21;;;;;;;;;7.75;6.00;13.60;99.90;;;;;;5013639;28;11716;-50
2022/05/31 14:06:52;;;;;;;;;5.25;4.75;13.60;99.90;;;;;;5012770;28;12228;-50
2022/05/31 14:09:28;;;;;;;;;4.50;4.50;13.70;99.90;;;;;;5010140;28;11503;-50
2022/05/31 14:12:00;;;;;;;;;6.00;5.75;13.70;99.90;;;;;;5015819;28;11474;-52
2022/05/31 14:14:44;;;;;;;;;6.00;6.00;13.70;99.90;;;;;;5016874;28;11477;-52
2022/05/31 14:17:30;;;;;;;;;6.00;4.75;13.70;99.90;;;;;;5013060;28;11481;-49
2022/05/31 14:20:28;;;;;;;;;5.00;3.75;13.70;99.90;;;;;;5014552;28;11489;-52
2022/05/31 14:23:10;;;;;;;;;6.00;6.00;13.80;99.90;;;;;;5018754;28;11497;-51
2022/05/31 14:25:46;;;;;;;;;7.25;6.50;13.80;99.90;;;;;;5012192;28;11492;-51
2022/05/31 14:28:22;;;;;;;;;6.00;5.00;13.90;99.90;;;;;;5012237;28;12279;-52
2022/05/31 14:30:59;;;;;;;;;7.00;7.00;13.90;99.90;;;;;;5012964;28;11611;-50
2022/05/31 14:33:33;;;;;;;;;5.50;5.50;13.90;99.90;;;;;;5013951;28;11485;-49
2022/05/31 14:36:04;;;;;;;;;6.25;5.50;14.00;99.90;;;;;;5010132;28;11472;-51